Time;durP1;ratioP1;P1;durP2;ratioP2;P2;SDS_P1;SDS_P2;PMS_P1;PMS_P2;Temp;Humidity;BMP_temperature;BMP_pressure;BME280_temperature;BME280_humidity;BME280_pressure;Samples;Min_cycle;Max_cycle;Signal;HPM_P1;HPM_P2
2022/08/22 00:00:23;;;;;;;61.10;55.33;;;;;;;22.18;100.00;100267.66;4980213;28;20140;-86
2022/08/22 00:03:14;;;;;;;64.47;58.85;;;;;;;22.07;100.00;100279.69;4995546;28;20050;-85
2022/08/22 00:05:56;;;;;;;62.85;57.13;;;;;;;22.08;100.00;100294.81;4993059;28;20050;-83
2022/08/22 00:08:31;;;;;;;68.15;62.05;;;;;;;21.72;100.00;100289.94;4994952;28;20064;-85
2022/08/22 00:11:07;;;;;;;72.75;66.25;;;;;;;21.74;100.00;100286.91;4994021;28;20062;-83
2022/08/22 00:13:43;;;;;;;72.53;66.43;;;;;;;21.77;100.00;100294.44;4993166;28;20126;-84
2022/08/22 00:16:18;;;;;;;64.55;58.85;;;;;;;21.72;100.00;100299.91;4993017;28;20117;-86
2022/08/22 00:18:50;;;;;;;70.47;64.10;;;;;;;21.80;100.00;100298.47;4989717;28;20072;-85
2022/08/22 00:21:30;;;;;;;72.53;66.15;;;;;;;21.76;100.00;100289.34;4995015;28;20058;-83
2022/08/22 00:24:12;;;;;;;77.65;70.90;;;;;;;21.87;100.00;100296.19;4990386;28;20070;-85
2022/08/22 00:26:50;;;;;;;66.45;60.88;;;;;;;21.72;100.00;100289.09;4978247;28;20518;-84
2022/08/22 00:29:21;;;;;;;67.80;61.58;;;;;;;21.83;100.00;100295.97;4979689;28;20086;-85
2022/08/22 00:31:52;;;;;;;63.05;57.65;;;;;;;21.43;100.00;100300.00;4982357;28;20046;-84
2022/08/22 00:34:30;;;;;;;63.00;57.42;;;;;;;21.91;100.00;100298.03;4995235;28;20447;-85
2022/08/22 00:37:06;;;;;;;63.13;56.83;;;;;;;22.00;100.00;100302.78;4980550;28;20108;-85
2022/08/22 00:39:38;;;;;;;57.00;51.63;;;;;;;21.95;100.00;100299.06;4994548;28;20050;-83
2022/08/22 00:42:30;;;;;;;59.33;53.88;;;;;;;21.95;100.00;100293.66;4994199;28;20046;-84
2022/08/22 00:45:20;;;;;;;59.53;54.17;;;;;;;21.77;100.00;100299.06;4988742;28;20109;-83
2022/08/22 00:48:01;;;;;;;61.97;56.33;;;;;;;21.95;100.00;100293.66;4993649;28;20055;-84
2022/08/22 00:50:44;;;;;;;70.88;64.95;;;;;;;22.28;100.00;100284.84;4983010;28;20051;-85
2022/08/22 00:53:43;;;;;;;70.53;64.78;;;;;;;22.26;100.00;100297.84;4994490;28;20407;-86
2022/08/22 00:56:42;;;;;;;67.13;61.33;;;;;;;22.18;100.00;100305.53;4991999;28;20050;-83
2022/08/22 00:59:41;;;;;;;70.05;63.92;;;;;;;21.95;100.00;100298.25;4978105;28;20054;-85
2022/08/22 01:02:28;;;;;;;76.35;69.85;;;;;;;21.97;100.00;100293.38;4988144;28;20050;-86
2022/08/22 01:05:09;;;;;;;72.50;66.32;;;;;;;21.70;100.00;100296.72;4975336;28;20055;-85
2022/08/22 01:07:52;;;;;;;64.97;59.15;;;;;;;21.71;100.00;100293.69;4988850;28;20112;-86
2022/08/22 01:10:41;;;;;;;63.15;57.20;;;;;;;21.96;100.00;100284.44;4981580;28;20050;-84
2022/08/22 01:13:29;;;;;;;67.45;61.30;;;;;;;22.07;100.00;100287.81;4988511;28;20109;-83
2022/08/22 01:16:05;;;;;;;64.22;58.53;;;;;;;21.95;100.00;100295.56;4991402;28;20054;-84
2022/08/22 01:19:03;;;;;;;65.35;59.78;;;;;;;21.89;100.00;100296.72;4994646;28;20050;-83
2022/08/22 01:22:11;;;;;;;65.43;59.58;;;;;;;22.15;100.00;100303.38;4993896;28;20047;-86
2022/08/22 01:25:25;;;;;;;69.65;63.30;;;;;;;22.01;100.00;100307.09;4978564;28;20054;-84
2022/08/22 01:28:26;;;;;;;70.25;64.25;;;;;;;21.78;100.00;100295.25;4983188;28;20057;-85
2022/08/22 01:31:39;;;;;;;66.95;60.80;;;;;;;21.93;100.00;100297.75;4915582;29;20096;-85
2022/08/22 01:34:20;;;;;;;;;;;;;;;22.01;100.00;100299.00;4994960;28;20050;-83
2022/08/22 01:37:13;;;;;;;73.50;67.28;;;;;;;21.81;100.00;100290.06;4990843;28;20259;-83
2022/08/22 01:40:02;;;;;;;63.25;57.65;;;;;;;21.87;100.00;100285.38;4993939;28;20051;-85
2022/08/22 01:42:52;;;;;;;60.95;54.88;;;;;;;21.59;100.00;100301.44;4988546;28;20042;-86
2022/08/22 01:46:00;;;;;;;79.60;73.07;;;;;;;21.98;100.00;100296.88;4989400;28;20057;-86
2022/08/22 01:48:38;;;;;;;71.82;64.93;;;;;;;21.87;100.00;100294.28;4963859;28;20065;-83
2022/08/22 01:51:13;;;;;;;69.32;62.97;;;;;;;21.61;100.00;100290.34;4993788;28;20066;-84
2022/08/22 01:53:48;;;;;;;60.45;55.00;;;;;;;21.55;100.00;100289.59;4993997;28;20050;-85
2022/08/22 01:56:18;;;;;;;61.72;55.47;;;;;;;21.54;100.00;100285.28;4993807;28;20050;-87
2022/08/22 01:58:55;;;;;;;66.15;60.42;;;;;;;21.81;100.00;100278.44;4993564;28;20070;-86
2022/08/22 02:01:33;;;;;;;64.90;58.97;;;;;;;21.95;100.00;100280.13;5103911;23;20066;-84
2022/08/22 02:04:06;;;;;;;62.33;56.63;;;;;;;21.80;100.00;100274.16;4971528;28;20059;-84
2022/08/22 02:06:45;;;;;;;59.22;53.70;;;;;;;21.41;100.00;100280.56;4971868;28;20047;-82
2022/08/22 02:09:28;;;;;;;62.65;56.65;;;;;;;21.48;100.00;100279.16;4974102;28;20049;-84
2022/08/22 02:12:00;;;;;;;62.80;56.28;;;;;;;21.64;100.00;100281.66;4974503;28;20125;-83
2022/08/22 02:14:42;;;;;;;60.13;54.67;;;;;;;21.92;100.00;100285.31;4981266;28;20039;-86
2022/08/22 02:17:13;;;;;;;;;;;;;;;21.77;100.00;100283.63;4978435;28;20046;-84
2022/08/22 02:19:57;;;;;;;62.45;56.53;;;;;;;21.68;100.00;100280.78;4972724;28;19922;-84
2022/08/22 02:22:37;;;;;;;63.35;57.47;;;;;;;21.56;100.00;100271.47;4975264;28;20058;-82
2022/08/22 02:25:15;;;;;;;62.30;56.20;;;;;;;21.66;100.00;100276.75;4975261;28;20051;-83
2022/08/22 02:27:58;;;;;;;58.58;52.47;;;;;;;21.64;100.00;100279.75;4987751;28;20046;-85
2022/08/22 02:30:31;;;;;;;59.60;54.13;;;;;;;21.73;100.00;100272.59;4975466;28;20051;-83
2022/08/22 02:33:08;;;;;;;64.85;58.92;;;;;;;21.56;100.00;100275.00;4977354;28;20055;-82
2022/08/22 02:35:42;;;;;;;70.47;64.45;;;;;;;21.22;100.00;100284.00;4978459;28;20046;-84
2022/08/22 02:38:25;;;;;;;89.05;81.07;;;;;;;21.55;100.00;100286.91;4976904;28;20120;-86
2022/08/22 02:41:09;;;;;;;105.05;97.00;;;;;;;21.63;100.00;100288.13;4974984;28;20046;-82
2022/08/22 02:43:43;;;;;;;106.20;98.57;;;;;;;21.70;100.00;100284.00;4985090;28;20054;-84
2022/08/22 02:46:22;;;;;;;89.95;82.85;;;;;;;21.57;100.00;100275.78;4973458;28;20404;-83
2022/08/22 02:48:58;;;;;;;93.05;85.35;;;;;;;21.59;100.00;100273.59;4981706;28;20085;-83
2022/08/22 02:51:40;;;;;;;85.65;78.43;;;;;;;21.58;100.00;100269.31;4985982;28;20399;-83
2022/08/22 02:54:17;;;;;;;74.05;67.65;;;;;;;21.35;100.00;100263.59;4976309;28;20144;-83
2022/08/22 02:56:57;;;;;;;68.68;62.63;;;;;;;21.46;100.00;100275.91;4973787;28;20050;-83
2022/08/22 02:59:32;;;;;;;72.50;66.15;;;;;;;21.53;100.00;100264.75;4990389;28;20050;-83
2022/08/22 03:02:27;;;;;;;77.47;70.95;;;;;;;21.53;100.00;100269.38;4973180;28;20054;-83
2022/08/22 03:04:56;;;;;;;78.30;71.25;;;;;;;21.49;100.00;100277.25;4976619;28;20057;-83
2022/08/22 03:07:33;;;;;;;59.55;54.15;;;;;;;21.21;100.00;100277.00;4980066;28;20388;-82
2022/08/22 03:10:16;;;;;;;68.75;62.58;;;;;;;20.89;100.00;100274.91;4980141;28;20129;-84
2022/08/22 03:13:00;;;;;;;60.10;54.33;;;;;;;20.86;100.00;100280.06;4972057;28;20050;-84
2022/08/22 03:15:37;;;;;;;73.65;67.30;;;;;;;21.01;100.00;100286.13;4961937;28;20480;-83
2022/08/22 03:18:16;;;;;;;73.72;67.30;;;;;;;20.91;100.00;100288.09;4985313;28;20047;-82
2022/08/22 03:20:49;;;;;;;69.35;63.05;;;;;;;21.05;100.00;100287.13;4983774;28;20073;-82
2022/08/22 03:23:30;;;;;;;72.60;66.15;;;;;;;21.11;100.00;100289.81;4977201;28;20053;-82
2022/08/22 03:26:05;;;;;;;63.40;57.65;;;;;;;21.34;100.00;100294.41;4973963;28;20043;-85
2022/08/22 03:28:42;;;;;;;69.80;63.50;;;;;;;21.30;100.00;100285.25;4976279;28;20047;-84
2022/08/22 03:31:14;;;;;;;62.50;56.92;;;;;;;21.15;100.00;100290.81;4977024;28;20403;-84
2022/08/22 03:33:42;;;;;;;69.05;62.45;;;;;;;21.13;100.00;100296.53;4975595;28;20057;-85
2022/08/22 03:36:30;;;;;;;68.28;62.42;;;;;;;21.11;100.00;100295.19;4973937;28;20054;-84
2022/08/22 03:39:14;;;;;;;58.92;53.38;;;;;;;20.49;100.00;100301.13;4975485;28;20078;-83
2022/08/22 03:42:04;;;;;;;56.80;51.83;;;;;;;20.73;100.00;100303.13;4975531;28;20043;-84
2022/08/22 03:45:15;;;;;;;59.15;53.75;;;;;;;20.65;100.00;100303.75;4971525;28;20058;-85
2022/08/22 03:48:14;;;;;;;56.78;50.88;;;;;;;20.92;100.00;100308.63;4974095;28;20114;-85
2022/08/22 03:51:19;;;;;;;57.22;51.80;;;;;;;20.74;100.00;100294.75;4974714;28;20050;-84
2022/08/22 03:54:09;;;;;;;57.58;52.00;;;;;;;21.07;100.00;100297.66;4972879;28;20051;-85
2022/08/22 03:57:18;;;;;;;58.45;52.67;;;;;;;21.22;100.00;100296.72;4968856;28;20074;-84
2022/08/22 04:00:08;;;;;;;53.15;48.45;;;;;;;21.17;100.00;100297.56;4973276;28;20050;-84
2022/08/22 04:03:20;;;;;;;52.53;47.72;;;;;;;21.14;100.00;100308.13;4974314;28;20063;-84
2022/08/22 04:06:26;;;;;;;57.00;51.60;;;;;;;20.93;100.00;100310.22;4944830;28;20059;-84
2022/08/22 04:09:30;;;;;;;57.05;51.60;;;;;;;21.09;100.00;100314.41;4970074;28;20042;-83
2022/08/22 04:12:29;;;;;;;60.00;54.50;;;;;;;21.24;100.00;100316.09;4973362;28;20051;-83
2022/08/22 04:15:31;;;;;;;61.53;56.13;;;;;;;21.22;100.00;100315.63;4975070;28;20062;-86
2022/08/22 04:18:24;;;;;;;68.90;63.00;;;;;;;21.28;100.00;100322.56;4974519;28;20046;-85
2022/08/22 04:21:16;;;;;;;62.15;56.78;;;;;;;21.30;100.00;100325.75;4978165;28;20054;-83
2022/08/22 04:23:51;;;;;;;;;;;;;;;21.30;100.00;100319.56;4975644;28;20058;-83
2022/08/22 04:26:33;;;;;;;58.38;53.35;;;;;;;20.86;100.00;100325.94;4977599;28;19934;-83
2022/08/22 04:29:07;;;;;;;57.42;51.88;;;;;;;21.25;100.00;100332.03;4972474;28;20047;-83
2022/08/22 04:31:46;;;;;;;56.55;51.63;;;;;;;21.21;100.00;100325.63;4973326;28;20057;-87
2022/08/22 04:34:23;;;;;;;56.78;51.63;;;;;;;21.52;100.00;100330.69;4971971;28;20055;-83
2022/08/22 04:36:59;;;;;;;58.20;53.33;;;;;;;21.55;100.00;100323.94;4978625;28;20050;-86
2022/08/22 04:39:35;;;;;;;56.55;51.83;;;;;;;21.58;100.00;100328.75;4970884;28;20053;-85
2022/08/22 04:42:15;;;;;;;54.38;49.45;;;;;;;21.37;100.00;100330.88;4973875;28;20050;-82
2022/08/22 04:44:52;;;;;;;49.85;45.47;;;;;;;21.10;100.00;100343.00;4972933;28;20046;-82
2022/08/22 04:47:30;;;;;;;55.97;51.22;;;;;;;20.98;100.00;100334.47;4975072;28;20051;-83
2022/08/22 04:50:05;;;;;;;57.35;52.05;;;;;;;21.47;100.00;100336.16;4970627;28;20114;-83
2022/08/22 04:52:46;;;;;;;57.55;52.75;;;;;;;21.76;100.00;100335.28;4975502;28;20061;-81
2022/08/22 04:55:24;;;;;;;57.67;52.70;;;;;;;21.81;100.00;100337.91;4976822;28;20055;-84
2022/08/22 04:57:57;;;;;;;58.45;53.33;;;;;;;22.06;100.00;100337.59;4974767;28;20051;-82
2022/08/22 05:00:25;;;;;;;59.15;54.28;;;;;;;22.11;100.00;100342.09;4960398;28;20125;-83
2022/08/22 05:02:57;;;;;;;55.10;50.28;;;;;;;22.15;100.00;100343.16;4974845;28;20062;-85
2022/08/22 05:05:37;;;;;;;60.00;55.00;;;;;;;21.95;100.00;100341.50;4973138;28;20063;-83
2022/08/22 05:08:10;;;;;;;51.78;47.17;;;;;;;22.03;100.00;100346.28;4978476;28;20046;-83
2022/08/22 05:10:45;;;;;;;56.38;51.80;;;;;;;22.06;100.00;100352.97;4973407;28;20413;-83
2022/08/22 05:13:18;;;;;;;57.05;52.20;;;;;;;22.12;100.00;100352.66;4966132;28;20061;-82
2022/08/22 05:15:50;;;;;;;52.13;47.72;;;;;;;21.93;100.00;100354.50;4981823;28;20078;-83
2022/08/22 05:18:23;;;;;;;50.75;46.28;;;;;;;21.84;100.00;100353.53;4974487;28;20078;-82
2022/08/22 05:20:54;;;;;;;55.72;50.85;;;;;;;21.84;100.00;100362.47;4981166;28;20487;-83
2022/08/22 05:23:26;;;;;;;56.63;51.78;;;;;;;21.98;100.00;100367.97;4988363;28;20047;-83
2022/08/22 05:25:58;;;;;;;52.55;48.08;;;;;;;21.88;100.00;100373.53;4977674;28;20483;-82
2022/08/22 05:28:33;;;;;;;56.13;50.97;;;;;;;22.23;100.00;100366.84;4982166;28;20054;-83
2022/08/22 05:31:05;;;;;;;52.67;47.75;;;;;;;22.36;100.00;100370.72;4977957;28;20089;-84
2022/08/22 05:33:38;;;;;;;51.75;47.30;;;;;;;22.17;100.00;100371.50;4977894;28;20039;-83
2022/08/22 05:36:08;;;;;;;54.22;49.05;;;;;;;22.28;100.00;100369.50;4972020;28;20570;-84
2022/08/22 05:38:40;;;;;;;52.28;47.78;;;;;;;22.24;100.00;100370.34;4980158;28;20403;-84
2022/08/22 05:41:10;;;;;;;52.00;47.58;;;;;;;22.25;100.00;100383.59;4976459;28;21027;-83
2022/08/22 05:43:40;;;;;;;54.00;49.10;;;;;;;22.25;100.00;100369.28;4974370;28;20054;-84
2022/08/22 05:46:12;;;;;;;55.45;50.65;;;;;;;22.32;100.00;100377.81;4968915;28;20058;-83
2022/08/22 05:48:44;;;;;;;52.50;47.78;;;;;;;22.70;100.00;100380.50;4978322;28;20043;-85
2022/08/22 05:51:20;;;;;;;53.55;49.05;;;;;;;22.70;100.00;100381.31;4980992;28;20047;-81
2022/08/22 05:53:52;;;;;;;55.47;50.85;;;;;;;22.92;100.00;100372.56;4981292;28;20038;-83
2022/08/22 05:56:26;;;;;;;53.42;48.83;;;;;;;23.06;100.00;100380.75;4980721;28;20085;-83
2022/08/22 05:58:58;;;;;;;57.15;52.63;;;;;;;22.77;100.00;100392.56;4984024;28;20085;-83
2022/08/22 06:01:31;;;;;;;51.75;47.63;;;;;;;22.84;100.00;100389.47;4982317;28;20388;-83
2022/08/22 06:04:08;;;;;;;54.17;49.80;;;;;;;23.27;100.00;100383.91;4972443;28;20050;-84
2022/08/22 06:06:43;;;;;;;52.45;48.08;;;;;;;23.31;100.00;100387.63;4975030;28;20051;-85
2022/08/22 06:09:21;;;;;;;49.13;45.22;;;;;;;23.52;100.00;100369.06;4978834;28;20387;-84
2022/08/22 06:12:00;;;;;;;49.83;46.03;;;;;;;23.22;100.00;100370.44;4981442;28;20058;-84
2022/08/22 06:14:41;;;;;;;44.00;40.38;;;;;;;23.29;100.00;100370.84;4978731;28;20471;-85
2022/08/22 06:17:11;;;;;;;47.80;43.80;;;;;;;23.75;100.00;100381.66;4980167;28;20148;-85
2022/08/22 06:19:43;;;;;;;49.22;45.42;;;;;;;23.46;100.00;100383.81;4975452;28;21250;-85
2022/08/22 06:22:15;;;;;;;45.60;42.13;;;;;;;23.02;100.00;100394.06;4977877;28;20043;-83
2022/08/22 06:24:42;;;;;;;45.65;41.95;;;;;;;22.91;100.00;100391.81;4978924;28;20050;-85
2022/08/22 06:27:12;;;;;;;50.00;46.10;;;;;;;23.61;100.00;100390.88;4978262;28;20054;-82
2022/08/22 06:29:43;;;;;;;49.80;45.83;;;;;;;23.10;100.00;100392.59;4985555;28;20061;-82
2022/08/22 06:32:14;;;;;;;51.55;47.65;;;;;;;23.21;100.00;100399.44;4981477;28;20050;-83
2022/08/22 06:34:45;;;;;;;53.35;49.40;;;;;;;23.40;100.00;100398.56;4980053;28;20051;-82
2022/08/22 06:37:19;;;;;;;51.88;47.97;;;;;;;23.05;100.00;100406.22;4977450;28;20051;-85
2022/08/22 06:39:50;;;;;;;55.03;50.92;;;;;;;23.43;100.00;100395.25;4977287;28;20043;-83
2022/08/22 06:42:23;;;;;;;51.25;47.25;;;;;;;23.14;100.00;100398.22;4973837;28;20046;-81
2022/08/22 06:44:54;;;;;;;49.35;45.65;;;;;;;23.29;100.00;100390.63;4978979;28;20039;-82
2022/08/22 06:47:26;;;;;;;51.10;47.30;;;;;;;23.45;100.00;100401.16;4980598;28;20059;-83
2022/08/22 06:49:59;;;;;;;47.70;43.90;;;;;;;23.13;100.00;100396.63;4981127;28;20054;-86
2022/08/22 06:52:32;;;;;;;46.25;42.63;;;;;;;23.59;100.00;100396.56;4992295;28;20133;-86
2022/08/22 06:55:05;;;;;;;47.30;43.65;;;;;;;23.69;100.00;100387.44;4980901;28;20053;-83
2022/08/22 06:57:35;;;;;;;45.92;42.38;;;;;;;23.94;100.00;100386.16;4982897;28;20053;-87
2022/08/22 07:00:07;;;;;;;44.58;41.28;;;;;;;24.34;100.00;100386.38;4982168;28;20050;-83
2022/08/22 07:02:39;;;;;;;42.28;38.95;;;;;;;23.70;100.00;100384.47;4977104;28;20063;-85
2022/08/22 07:05:13;;;;;;;40.63;37.63;;;;;;;23.95;100.00;100385.84;4974085;28;20484;-85
2022/08/22 07:07:49;;;;;;;42.30;39.10;;;;;;;23.87;100.00;100388.47;4976964;28;20459;-86
2022/08/22 07:10:20;;;;;;;48.15;44.47;;;;;;;24.43;100.00;100387.28;4973428;28;20062;-86
2022/08/22 07:12:52;;;;;;;42.33;39.03;;;;;;;24.03;100.00;100394.38;4974369;28;20057;-84
2022/08/22 07:15:31;;;;;;;43.63;40.25;;;;;;;23.92;100.00;100391.88;4972257;28;20043;-84
2022/08/22 07:18:04;;;;;;;44.38;41.08;;;;;;;24.09;100.00;100393.19;4973127;28;20499;-86
2022/08/22 07:20:36;;;;;;;39.58;36.45;;;;;;;24.59;100.00;100388.53;4975505;28;20047;-83
2022/08/22 07:23:10;;;;;;;44.42;41.08;;;;;;;24.50;100.00;100393.06;4978409;28;20057;-84
2022/08/22 07:25:50;;;;;;;37.58;35.00;;;;;;;23.85;100.00;100391.50;4976213;28;20047;-84
2022/08/22 07:28:38;;;;;;;40.60;37.67;;;;;;;24.56;100.00;100391.06;4971231;28;20057;-87
2022/08/22 07:31:37;;;;;;;44.30;41.03;;;;;;;24.51;100.00;100402.03;4971686;28;20054;-84
2022/08/22 07:34:27;;;;;;;41.97;38.92;;;;;;;24.80;100.00;100401.63;4974159;28;20094;-82
2022/08/22 07:37:04;;;;;;;40.25;37.20;;;;;;;25.33;100.00;100401.66;4976699;28;20144;-82
2022/08/22 07:42:36;;;;;;;37.03;34.42;;;;;;;24.91;100.00;100397.56;4972795;28;20786;-83
2022/08/22 07:45:09;;;;;;;39.78;36.55;;;;;;;24.87;100.00;100400.09;4976971;28;20046;-86
2022/08/22 07:47:55;;;;;;;42.05;39.13;;;;;;;25.69;100.00;100391.69;4984238;28;20061;-83
2022/08/22 07:50:27;;;;;;;40.28;37.28;;;;;;;25.36;100.00;100395.59;4967284;28;20152;-83
2022/08/22 07:53:15;;;;;;;44.35;40.95;;;;;;;26.34;100.00;100393.63;4969796;28;20069;-87
2022/08/22 07:55:44;;;;;;;40.45;37.85;;;;;;;26.00;100.00;100399.84;4967594;28;20051;-81
2022/08/22 07:58:14;;;;;;;40.22;37.42;;;;;;;27.01;100.00;100388.78;4977329;28;20058;-86
2022/08/22 08:00:43;;;;;;;41.78;39.17;;;;;;;26.87;100.00;100388.97;4975830;28;20050;-85
2022/08/22 08:03:27;;;;;;;34.05;31.60;;;;;;;26.58;100.00;100390.47;4969467;28;20046;-84
2022/08/22 08:05:55;;;;;;;32.10;30.08;;;;;;;25.83;100.00;100389.69;4962990;28;20050;-82
2022/08/22 08:08:25;;;;;;;34.53;32.03;;;;;;;26.17;100.00;100393.59;4971710;28;20051;-84
2022/08/22 08:10:57;;;;;;;36.00;33.20;;;;;;;26.77;100.00;100390.13;4972711;28;20476;-84
2022/08/22 08:13:32;;;;;;;31.50;29.02;;;;;;;26.79;100.00;100382.44;4966481;28;20063;-87
2022/08/22 08:16:00;;;;;;;35.45;33.15;;;;;;;27.44;100.00;100376.97;4969633;28;20047;-81
2022/08/22 08:18:30;;;;;;;33.13;30.90;;;;;;;27.52;100.00;100378.88;4970699;28;20045;-84
2022/08/22 08:21:00;;;;;;;33.20;31.00;;;;;;;27.75;100.00;100376.69;4975275;28;20066;-81
2022/08/22 08:23:32;;;;;;;32.58;30.45;;;;;;;27.37;100.00;100383.75;4972012;28;20043;-86
2022/08/22 08:26:06;;;;;;;30.52;28.52;;;;;;;27.01;100.00;100384.13;4972219;28;20051;-80
2022/08/22 08:28:38;;;;;;;29.83;27.92;;;;;;;26.82;100.00;100389.16;4968573;28;20054;-84
2022/08/22 08:31:15;;;;;;;33.00;30.67;;;;;;;26.80;100.00;100389.47;4975348;28;20047;-83
2022/08/22 08:33:47;;;;;;;34.05;31.85;;;;;;;27.09;100.00;100386.06;4982534;28;20051;-82
2022/08/22 08:36:40;;;;;;;33.78;31.48;;;;;;;27.37;100.00;100382.94;4973463;28;20511;-84
2022/08/22 08:39:19;;;;;;;30.95;28.90;;;;;;;26.93;100.00;100377.59;4981581;28;20069;-86
2022/08/22 08:42:04;;;;;;;31.60;29.40;;;;;;;27.49;100.00;100379.53;4980215;28;20061;-81
2022/08/22 08:44:58;;;;;;;38.92;36.08;;;;;;;28.41;100.00;100378.81;4980474;28;20050;-82
2022/08/22 08:47:42;;;;;;;31.70;29.42;;;;;;;27.45;100.00;100384.03;4970201;28;20059;-84
2022/08/22 08:50:36;;;;;;;35.67;33.45;;;;;;;28.01;100.00;100368.34;4972716;28;20420;-81
2022/08/22 08:53:54;;;;;;;33.28;30.98;;;;;;;27.49;100.00;100380.31;4978124;28;20128;-84
2022/08/22 08:56:37;;;;;;;33.50;31.27;;;;;;;27.69;100.00;100373.34;4904432;29;20591;-85
2022/08/22 08:59:24;;;;;;;28.58;26.48;;;;;;;26.77;100.00;100375.69;4964319;28;20047;-82
2022/08/22 09:02:16;;;;;;;31.20;28.98;;;;;;;26.92;100.00;100375.97;4959516;28;20119;-84
2022/08/22 09:05:15;;;;;;;32.83;30.52;;;;;;;27.83;100.00;100368.44;4971305;28;20046;-85
2022/08/22 09:08:41;;;;;;;33.13;31.00;;;;;;;28.25;100.00;100365.75;4971871;28;20109;-85
2022/08/22 09:11:49;;;;;;;34.42;32.13;;;;;;;26.91;100.00;100373.59;4929671;29;20052;-85
2022/08/22 09:14:34;;;;;;;35.95;33.45;;;;;;;28.84;100.00;100367.50;4932996;29;20051;-82
2022/08/22 09:17:31;;;;;;;37.13;34.50;;;;;;;28.32;100.00;100376.13;4930819;29;20229;-84
2022/08/22 09:20:21;;;;;;;37.53;35.17;;;;;;;29.66;100.00;100370.28;4969113;28;20053;-81
2022/08/22 09:23:18;;;;;;;36.22;33.80;;;;;;;29.27;100.00;100368.19;4980144;28;20090;-83
2022/08/22 09:25:52;;;;;;;35.95;33.35;;;;;;;30.37;100.00;100372.78;4974572;28;20061;-82
2022/08/22 09:28:28;;;;;;;35.38;32.97;;;;;;;29.58;100.00;100373.09;4982082;28;20129;-85
2022/08/22 09:31:10;;;;;;;35.70;33.40;;;;;;;29.71;100.00;100365.72;4983912;28;20137;-81
2022/08/22 09:33:39;;;;;;;;;;;;;;;30.16;100.00;100360.03;4986571;28;20047;-81
2022/08/22 09:36:18;;;;;;;33.88;31.80;;;;;;;29.75;100.00;100361.16;4983789;28;19932;-86
2022/08/22 09:38:56;;;;;;;36.58;34.35;;;;;;;29.76;100.00;100365.47;4976235;28;20047;-82
2022/08/22 09:41:34;;;;;;;35.35;33.15;;;;;;;30.12;100.00;100359.94;4990680;28;20046;-82
2022/08/22 09:44:12;;;;;;;35.63;33.22;;;;;;;30.79;100.00;100360.28;4983855;28;20125;-83
2022/08/22 09:46:52;;;;;;;33.92;31.92;;;;;;;31.74;100.00;100362.22;4980229;28;20121;-83
2022/08/22 09:49:31;;;;;;;31.70;29.90;;;;;;;31.24;100.00;100361.84;4985039;28;20075;-86
2022/08/22 09:52:06;;;;;;;32.55;30.45;;;;;;;30.78;100.00;100357.91;4989308;28;20062;-83
2022/08/22 09:54:39;;;;;;;33.60;31.42;;;;;;;28.77;100.00;100365.31;4978428;28;20063;-83
2022/08/22 09:57:29;;;;;;;35.22;32.83;;;;;;;30.17;100.00;100358.91;4991687;28;20454;-84
2022/08/22 10:00:16;;;;;;;35.05;32.85;;;;;;;29.79;100.00;100362.84;4966643;28;20057;-86
2022/08/22 10:02:58;;;;;;;36.28;34.17;;;;;;;30.26;100.00;100353.28;4992345;28;20487;-84
2022/08/22 10:05:29;;;;;;;34.63;32.30;;;;;;;31.96;100.00;100349.03;4980185;28;20050;-81
2022/08/22 10:08:09;;;;;;;32.80;30.67;;;;;;;32.30;100.00;100348.16;4987648;28;20073;-83
2022/08/22 10:10:58;;;;;;;35.25;32.90;;;;;;;32.00;100.00;100347.94;4990417;28;20461;-84
2022/08/22 10:13:37;;;;;;;36.28;33.85;;;;;;;30.77;100.00;100348.88;4986760;28;20054;-83
2022/08/22 10:16:21;;;;;;;34.05;32.05;;;;;;;31.75;100.00;100343.84;4979363;28;20061;-83
2022/08/22 10:19:03;;;;;;;33.85;31.75;;;;;;;31.41;100.00;100349.75;4980862;28;20117;-81
2022/08/22 10:21:34;;;;;;;;;;;;;;;30.45;100.00;100338.97;4982269;28;20130;-81
2022/08/22 10:24:15;;;;;;;34.00;31.65;;;;;;;30.79;100.00;100343.84;4980329;28;19972;-81
2022/08/22 10:26:47;;;;;;;32.92;30.60;;;;;;;30.05;100.00;100337.84;4980295;28;20055;-82
2022/08/22 10:29:37;;;;;;;33.88;31.88;;;;;;;30.24;100.00;100344.66;4978613;28;20082;-84
2022/08/22 10:32:15;;;;;;;34.78;32.42;;;;;;;30.12;100.00;100342.72;4983036;28;20054;-82
2022/08/22 10:34:57;;;;;;;33.88;31.75;;;;;;;30.29;100.00;100347.16;4975799;28;20137;-86
2022/08/22 10:37:29;;;;;;;;;;;;;;;30.31;100.00;100342.91;4983890;28;20404;-81
2022/08/22 10:40:13;;;;;;;31.05;28.90;;;;;;;30.73;100.00;100344.44;4977070;28;19922;-85
2022/08/22 10:42:48;;;;;;;33.10;30.42;;;;;;;30.52;100.00;100345.44;4984479;28;20071;-85
2022/08/22 10:45:27;;;;;;;31.48;29.50;;;;;;;31.57;100.00;100343.44;4973175;28;20043;-83
2022/08/22 10:48:30;;;;;;;30.83;28.77;;;;;;;31.61;100.00;100347.03;4968677;28;20383;-80
2022/08/22 10:51:05;;;;;;;31.25;28.95;;;;;;;32.19;100.00;100338.91;4979588;28;20129;-82
2022/08/22 10:53:45;;;;;;;36.40;34.00;;;;;;;30.93;100.00;100335.22;4978365;28;20073;-81
2022/08/22 10:56:26;;;;;;;34.10;31.63;;;;;;;31.69;100.00;100337.81;4982876;28;20082;-82
2022/08/22 10:59:01;;;;;;;31.45;29.20;;;;;;;32.35;100.00;100328.66;4983627;28;20104;-85
2022/08/22 11:01:34;;;;;;;31.10;28.80;;;;;;;30.23;100.00;100327.44;4965671;28;20062;-87
2022/08/22 11:04:09;;;;;;;31.13;28.70;;;;;;;29.69;100.00;100322.28;4971902;28;20086;-85
2022/08/22 11:06:45;;;;;;;33.42;31.05;;;;;;;29.02;100.00;100324.44;4992146;28;20039;-83
2022/08/22 11:09:23;;;;;;;36.25;33.38;;;;;;;29.02;100.00;100318.97;4968735;28;20067;-84
2022/08/22 11:18:42;;;;;;;34.47;32.17;;;;;;;28.61;100.00;100301.53;4976934;28;20062;-85
2022/08/22 11:21:41;;;;;;;34.35;31.92;;;;;;;28.42;100.00;100290.31;4984755;28;20077;-84
2022/08/22 11:25:05;;;;;;;33.63;31.27;;;;;;;28.87;100.00;100289.53;4991438;28;20489;-83
2022/08/22 11:28:00;;;;;;;35.70;33.33;;;;;;;29.92;100.00;100280.72;4973256;28;20458;-84
2022/08/22 11:30:42;;;;;;;34.25;32.05;;;;;;;29.71;100.00;100264.47;4980983;28;20467;-80
2022/08/22 11:36:39;;;;;;;33.22;30.77;;;;;;;29.37;100.00;100270.06;4970344;28;20055;-83
2022/08/22 11:39:31;;;;;;;32.15;29.77;;;;;;;31.32;100.00;100257.75;4976493;28;20162;-84
2022/08/22 11:42:06;;;;;;;32.45;30.13;;;;;;;30.56;100.00;100261.41;4981287;28;20051;-82
2022/08/22 11:44:41;;;;;;;33.42;30.98;;;;;;;31.12;100.00;100262.41;4984129;28;20061;-82
2022/08/22 11:47:11;;;;;;;33.08;30.77;;;;;;;29.57;100.00;100264.81;4979779;28;20054;-83
2022/08/22 11:49:59;;;;;;;33.10;30.67;;;;;;;30.24;100.00;100265.22;4975078;28;20047;-84
2022/08/22 11:52:53;;;;;;;35.17;32.72;;;;;;;31.57;100.00;100261.09;4982684;28;20109;-84
2022/08/22 11:55:32;;;;;;;31.67;29.45;;;;;;;30.85;100.00;100269.59;4963752;28;20069;-84
2022/08/22 11:58:17;;;;;;;36.13;33.45;;;;;;;32.89;100.00;100252.66;4964820;28;20062;-83
2022/08/22 12:00:54;;;;;;;34.55;32.22;;;;;;;33.35;100.00;100258.13;4980799;28;20046;-81
2022/08/22 12:03:40;;;;;;;33.90;31.48;;;;;;;33.73;100.00;100253.53;4974535;28;20086;-84
2022/08/22 12:06:25;;;;;;;32.20;29.77;;;;;;;31.76;100.00;100255.63;4982510;28;20475;-80
2022/08/22 12:09:19;;;;;;;31.95;29.83;;;;;;;32.27;100.00;100252.75;4975218;28;20403;-82
2022/08/22 12:12:00;;;;;;;32.83;30.52;;;;;;;32.41;100.00;100257.72;4966312;28;20058;-83
2022/08/22 12:14:39;;;;;;;32.63;29.98;;;;;;;30.80;100.00;100256.91;4962356;28;20476;-84
2022/08/22 12:17:28;;;;;;;31.90;29.75;;;;;;;30.48;100.00;100251.41;4973453;28;20047;-83